Time;durP1;ratioP1;P1;durP2;ratioP2;P2;SDS_P1;SDS_P2;PMS_P1;PMS_P2;Temp;Humidity;BMP_temperature;BMP_pressure;BME280_temperature;BME280_humidity;BME280_pressure;Samples;Min_cycle;Max_cycle;Signal;HPM_P1;HPM_P2
2021/07/28 00:00:08;;;;;;;21.03;18.83;;;18.60;99.90;;;;;;5050835;28;20916;-67
2021/07/28 00:02:39;;;;;;;19.20;16.60;;;18.60;99.90;;;;;;5051320;28;20448;-67
2021/07/28 00:05:12;;;;;;;26.10;18.20;;;18.60;99.90;;;;;;5051108;28;20531;-67
2021/07/28 00:07:39;;;;;;;19.60;16.27;;;18.60;99.90;;;;;;5050989;28;20559;-67
2021/07/28 00:10:07;;;;;;;19.07;17.10;;;18.60;99.90;;;;;;5051003;28;20483;-67
2021/07/28 00:12:36;;;;;;;17.47;15.37;;;18.60;99.90;;;;;;5050960;28;20448;-67
2021/07/28 00:15:08;;;;;;;19.77;17.67;;;18.60;99.90;;;;;;5049757;28;21152;-67
2021/07/28 00:17:37;;;;;;;19.80;17.70;;;18.60;99.90;;;;;;5053979;28;20547;-67
2021/07/28 00:20:09;;;;;;;22.80;17.83;;;18.60;99.90;;;;;;5055705;28;20633;-67
2021/07/28 00:25:28;;;;;;;23.67;18.87;;;18.70;99.90;;;;;;5050660;28;20570;-68
2021/07/28 00:27:56;;;;;;;21.80;19.43;;;18.60;99.90;;;;;;5050968;28;20471;-67
2021/07/28 00:30:26;;;;;;;20.27;18.07;;;18.60;99.90;;;;;;5049128;28;20578;-67
2021/07/28 00:32:55;;;;;;;19.20;17.30;;;18.60;99.90;;;;;;5049912;28;20934;-67
2021/07/28 00:35:21;;;;;;;23.17;18.00;;;18.60;99.90;;;;;;5050072;28;20458;-67
2021/07/28 00:37:49;;;;;;;21.33;18.87;;;18.70;99.90;;;;;;5048398;28;20942;-67
2021/07/28 00:40:17;;;;;;;21.83;19.40;;;18.70;99.90;;;;;;5049524;28;20449;-67
2021/07/28 00:42:44;;;;;;;19.77;17.50;;;18.80;99.90;;;;;;5049907;28;20946;-67
2021/07/28 00:45:13;;;;;;;21.10;18.90;;;18.80;99.90;;;;;;5048776;28;20475;-67
2021/07/28 00:47:40;;;;;;;22.93;20.53;;;18.80;99.90;;;;;;5049808;28;20994;-67
2021/07/28 00:50:08;;;;;;;20.53;18.03;;;18.70;99.90;;;;;;5049427;28;20570;-67
2021/07/28 00:52:38;;;;;;;21.63;19.20;;;18.70;99.90;;;;;;5049934;28;20531;-67
2021/07/28 00:55:07;;;;;;;20.03;18.03;;;18.60;99.90;;;;;;5049623;28;20456;-67
2021/07/28 00:57:34;;;;;;;21.93;19.10;;;18.60;99.90;;;;;;5049873;28;20479;-67
2021/07/28 01:00:01;;;;;;;22.07;19.20;;;18.60;99.90;;;;;;5049234;28;20818;-67
2021/07/28 01:02:30;;;;;;;23.23;20.03;;;18.50;99.90;;;;;;5049745;28;20452;-67
2021/07/28 01:04:57;;;;;;;22.40;19.93;;;18.50;99.90;;;;;;5049778;28;20447;-67
2021/07/28 01:07:24;;;;;;;21.80;18.57;;;18.40;99.90;;;;;;5049699;28;20471;-67
2021/07/28 01:09:50;;;;;;;23.47;19.40;;;18.30;99.90;;;;;;5049379;28;20483;-67
2021/07/28 01:12:17;;;;;;;22.80;19.83;;;18.40;99.90;;;;;;5049600;28;20531;-67
2021/07/28 01:14:44;;;;;;;24.53;20.50;;;18.50;99.90;;;;;;5049792;28;20451;-67
2021/07/28 01:17:12;;;;;;;22.20;19.60;;;18.40;99.90;;;;;;5049509;28;20448;-67
2021/07/28 01:19:48;;;;;;;20.50;18.30;;;18.50;99.90;;;;;;5049163;28;21011;-67
2021/07/28 01:22:16;;;;;;;21.27;17.80;;;18.30;99.90;;;;;;5049826;28;20428;-67
2021/07/28 01:24:44;;;;;;;20.10;18.00;;;18.30;99.90;;;;;;5049731;28;20443;-67
2021/07/28 01:27:12;;;;;;;21.20;18.93;;;18.30;99.90;;;;;;5049612;28;20463;-66
2021/07/28 01:29:39;;;;;;;20.60;17.70;;;18.40;99.90;;;;;;5049251;28;20482;-67
2021/07/28 01:32:07;;;;;;;22.00;19.30;;;18.40;99.90;;;;;;5049484;28;20816;-67
2021/07/28 01:34:35;;;;;;;21.17;18.60;;;18.40;99.90;;;;;;5049419;28;20444;-67
2021/07/28 01:37:05;;;;;;;25.03;22.33;;;18.40;99.90;;;;;;5049567;28;20448;-67
2021/07/28 01:39:33;;;;;;;23.47;20.10;;;18.30;99.90;;;;;;5049155;28;20490;-67
2021/07/28 01:42:02;;;;;;;24.10;21.60;;;18.30;99.90;;;;;;5049521;28;20451;-67
2021/07/28 01:44:29;;;;;;;26.37;21.63;;;18.20;99.90;;;;;;5049376;28;20831;-67
2021/07/28 01:46:56;;;;;;;28.10;22.17;;;18.20;99.90;;;;;;5049409;28;20448;-67
2021/07/28 01:49:22;;;;;;;29.10;21.97;;;18.20;99.90;;;;;;5049976;28;20478;-66
2021/07/28 01:51:49;;;;;;;21.80;19.07;;;18.20;99.90;;;;;;5053493;28;20535;-66
2021/07/28 01:54:16;;;;;;;12.73;11.40;;;18.20;99.90;;;;;;5053693;28;20452;-67
2021/07/28 01:56:43;;;;;;;13.10;11.67;;;18.00;99.90;;;;;;5053422;28;20801;-67
2021/07/28 01:59:14;;;;;;;12.57;11.27;;;18.00;99.90;;;;;;5052964;28;20459;-67
2021/07/28 02:01:41;;;;;;;14.00;12.50;;;18.00;99.90;;;;;;5053070;28;20452;-67
2021/07/28 02:04:08;;;;;;;14.50;12.97;;;17.90;99.90;;;;;;5052706;28;20535;-67
2021/07/28 02:06:35;;;;;;;13.00;11.70;;;17.90;99.90;;;;;;5052840;28;20444;-67
2021/07/28 02:09:01;;;;;;;16.53;13.07;;;17.90;99.90;;;;;;5052511;28;20467;-67
2021/07/28 02:11:29;;;;;;;16.80;14.23;;;17.90;99.90;;;;;;5052769;28;20574;-67
2021/07/28 02:13:56;;;;;;;20.80;16.50;;;17.90;99.90;;;;;;5052968;28;20448;-67
2021/07/28 02:16:24;;;;;;;16.00;13.40;;;18.00;99.90;;;;;;5052566;28;20978;-67
2021/07/28 02:18:51;;;;;;;13.50;11.37;;;17.90;99.90;;;;;;5052383;28;21000;-67
2021/07/28 02:21:17;;;;;;;10.43;9.43;;;17.90;99.90;;;;;;5052615;28;20531;-67
2021/07/28 02:23:44;;;;;;;13.53;10.90;;;17.90;99.90;;;;;;5052774;28;20448;-67
2021/07/28 02:26:11;;;;;;;11.23;10.03;;;17.80;99.90;;;;;;5052153;28;20517;-67
2021/07/28 02:28:38;;;;;;;9.83;8.83;;;17.80;99.90;;;;;;5052273;28;20476;-67
2021/07/28 02:31:05;;;;;;;11.60;10.50;;;17.70;99.90;;;;;;5052113;28;20493;-67
2021/07/28 02:33:33;;;;;;;11.37;10.17;;;17.60;99.90;;;;;;5052264;28;20447;-67
2021/07/28 02:36:00;;;;;;;12.47;11.17;;;17.60;99.90;;;;;;5052493;28;20444;-67
2021/07/28 02:38:27;;;;;;;13.70;12.07;;;17.60;99.90;;;;;;5052350;28;20466;-67
2021/07/28 02:40:54;;;;;;;12.67;11.37;;;17.70;99.90;;;;;;5051936;28;20454;-67
2021/07/28 02:43:21;;;;;;;13.43;12.13;;;17.70;99.90;;;;;;5052202;28;20534;-67
2021/07/28 02:45:47;;;;;;;12.30;11.10;;;17.70;99.90;;;;;;5052443;28;20866;-67
2021/07/28 02:48:14;;;;;;;13.23;11.80;;;17.60;99.90;;;;;;5052198;28;20472;-67
2021/07/28 02:50:42;;;;;;;13.40;11.00;;;17.60;99.90;;;;;;5051925;28;20494;-67
2021/07/28 02:53:09;;;;;;;12.30;11.00;;;17.60;99.90;;;;;;5052087;28;20458;-67
2021/07/28 02:55:36;;;;;;;10.63;9.53;;;17.50;99.90;;;;;;5052079;28;20447;-67
2021/07/28 02:58:03;;;;;;;16.63;12.47;;;17.50;99.90;;;;;;5052165;28;20913;-67
2021/07/28 03:00:30;;;;;;;16.67;12.77;;;17.50;99.90;;;;;;5050604;28;20938;-67
2021/07/28 03:02:57;;;;;;;14.87;12.67;;;17.50;99.90;;;;;;5051602;28;20448;-67
2021/07/28 03:05:23;;;;;;;17.30;13.27;;;17.50;99.90;;;;;;5052358;28;20534;-68
2021/07/28 03:07:52;;;;;;;16.33;12.90;;;17.40;99.90;;;;;;5051512;28;21064;-67
2021/07/28 03:10:19;;;;;;;14.43;12.80;;;17.50;99.90;;;;;;5051253;28;20567;-67
2021/07/28 03:12:45;;;;;;;14.50;12.20;;;17.50;99.90;;;;;;5051776;28;20568;-68
2021/07/28 03:15:13;;;;;;;15.70;11.83;;;17.40;99.90;;;;;;5051893;28;20456;-67
2021/07/28 03:17:39;;;;;;;13.23;11.70;;;17.30;99.90;;;;;;5051599;28;20863;-68
2021/07/28 03:20:07;;;;;;;13.53;12.13;;;17.30;99.90;;;;;;5051278;28;20542;-68
2021/07/28 03:22:34;;;;;;;13.57;12.27;;;17.20;99.90;;;;;;5051406;28;20522;-67
2021/07/28 03:25:02;;;;;;;13.33;11.70;;;17.10;99.90;;;;;;5051333;28;20483;-67
2021/07/28 03:27:29;;;;;;;15.43;11.70;;;17.00;99.90;;;;;;5051318;28;20466;-67
2021/07/28 03:29:56;;;;;;;14.27;12.83;;;17.00;99.90;;;;;;5051219;28;20499;-67
2021/07/28 03:32:23;;;;;;;15.63;13.33;;;17.00;99.90;;;;;;5051389;28;20452;-67
2021/07/28 03:34:49;;;;;;;15.23;12.33;;;17.00;99.90;;;;;;5051143;28;20531;-67
2021/07/28 03:37:16;;;;;;;15.20;12.70;;;17.00;99.90;;;;;;5051390;28;20447;-67
2021/07/28 03:39:43;;;;;;;13.83;12.33;;;17.00;99.90;;;;;;5050666;28;20479;-67
2021/07/28 03:42:11;;;;;;;13.40;12.10;;;16.90;99.90;;;;;;5051170;28;20950;-67
2021/07/28 03:44:38;;;;;;;13.53;12.00;;;16.90;99.90;;;;;;5051488;28;20444;-67
2021/07/28 03:47:05;;;;;;;14.27;12.40;;;16.90;99.90;;;;;;5051166;28;20452;-67
2021/07/28 03:49:32;;;;;;;16.37;13.00;;;16.90;99.90;;;;;;5050723;28;20440;-67
2021/07/28 03:51:59;;;;;;;13.50;12.10;;;16.80;99.90;;;;;;5050909;28;20575;-67
2021/07/28 03:54:25;;;;;;;14.20;12.73;;;16.90;99.90;;;;;;5051283;28;20535;-67
2021/07/28 03:56:52;;;;;;;20.30;14.50;;;17.00;99.90;;;;;;5051206;28;20448;-67
2021/07/28 03:59:26;;;;;;;17.20;12.77;;;17.00;99.90;;;;;;5051087;28;20859;-67
2021/07/28 04:01:53;;;;;;;15.33;13.13;;;17.00;99.90;;;;;;5050650;28;20450;-67
2021/07/28 04:04:19;;;;;;;26.70;16.53;;;17.00;99.90;;;;;;5050796;28;20535;-65
2021/07/28 04:06:46;;;;;;;15.00;13.40;;;17.10;99.90;;;;;;5050576;28;20456;-65
2021/07/28 04:09:13;;;;;;;17.23;15.03;;;17.10;99.90;;;;;;5051255;28;20563;-66
2021/07/28 04:11:40;;;;;;;17.80;14.77;;;17.10;99.90;;;;;;5051168;28;20574;-66
2021/07/28 04:14:07;;;;;;;19.73;15.60;;;17.10;99.90;;;;;;5051427;28;20518;-65
2021/07/28 04:16:35;;;;;;;18.93;15.20;;;17.10;99.90;;;;;;5051599;28;20444;-65
2021/07/28 04:19:02;;;;;;;18.97;14.50;;;17.20;99.90;;;;;;5050543;28;20476;-65
2021/07/28 04:21:29;;;;;;;18.17;15.30;;;17.20;99.90;;;;;;5050255;28;20472;-66
2021/07/28 04:23:56;;;;;;;18.60;14.60;;;17.30;99.90;;;;;;5050343;28;20956;-66
2021/07/28 04:26:23;;;;;;;20.70;14.93;;;17.30;99.90;;;;;;5050347;28;20440;-65
2021/07/28 04:28:50;;;;;;;16.13;14.53;;;17.30;99.90;;;;;;5049952;28;21033;-65
2021/07/28 04:31:17;;;;;;;19.40;13.20;;;17.30;99.90;;;;;;5035212;28;21005;-64
2021/07/28 04:33:46;;;;;;;16.43;13.60;;;17.30;99.90;;;;;;5030270;28;20449;-65
2021/07/28 04:36:12;;;;;;;22.50;15.60;;;17.30;99.90;;;;;;5029819;28;20453;-65
2021/07/28 04:38:39;;;;;;;16.30;14.10;;;17.40;99.90;;;;;;5052003;28;20464;-65
2021/07/28 04:41:06;;;;;;;14.97;13.27;;;17.60;99.90;;;;;;5058066;28;20534;-66
2021/07/28 04:43:33;;;;;;;14.73;13.20;;;17.70;99.90;;;;;;5057226;28;21085;-71
2021/07/28 04:46:01;;;;;;;15.63;13.27;;;17.70;99.90;;;;;;5052478;28;20444;-66
2021/07/28 04:48:28;;;;;;;16.53;14.60;;;17.70;99.90;;;;;;5049492;28;21209;-67
2021/07/28 04:50:58;;;;;;;15.77;13.10;;;17.70;99.90;;;;;;5049534;28;20583;-67
2021/07/28 04:53:28;;;;;;;15.63;13.33;;;17.70;99.90;;;;;;5049759;28;20475;-67
2021/07/28 04:55:55;;;;;;;17.57;13.80;;;17.80;99.90;;;;;;5048574;28;20949;-67
2021/07/28 04:58:23;;;;;;;14.17;12.77;;;17.90;99.90;;;;;;5053262;28;20467;-67
2021/07/28 05:00:50;;;;;;;13.13;11.50;;;18.00;99.90;;;;;;5058896;28;20510;-68
2021/07/28 05:03:16;;;;;;;13.30;11.93;;;18.10;99.90;;;;;;5050455;28;20849;-67
2021/07/28 05:05:43;;;;;;;17.40;11.83;;;18.10;99.90;;;;;;5053623;28;20892;-68
2021/07/28 05:08:12;;;;;;;15.30;12.90;;;18.10;99.90;;;;;;5058762;28;21001;-67
2021/07/28 05:10:39;;;;;;;14.87;13.07;;;18.10;99.90;;;;;;5049034;28;20578;-67
2021/07/28 05:13:06;;;;;;;15.33;12.77;;;18.20;99.90;;;;;;5049462;28;20523;-68
2021/07/28 05:15:33;;;;;;;18.03;14.80;;;18.20;99.90;;;;;;5049116;28;20448;-68
2021/07/28 05:18:00;;;;;;;18.13;13.90;;;18.30;99.90;;;;;;5048894;28;20559;-67
2021/07/28 05:20:26;;;;;;;15.73;13.60;;;18.40;99.90;;;;;;5049035;28;20462;-67
2021/07/28 05:22:53;;;;;;;13.90;12.33;;;18.50;99.90;;;;;;5049813;28;20530;-67
2021/07/28 05:25:22;;;;;;;14.87;11.90;;;18.50;99.90;;;;;;5052573;28;20826;-67
2021/07/28 05:27:49;;;;;;;15.47;11.70;;;18.60;99.90;;;;;;5052501;28;21104;-68
2021/07/28 05:30:16;;;;;;;18.33;15.17;;;18.60;99.90;;;;;;5053603;28;20539;-67
2021/07/28 05:32:43;;;;;;;14.83;13.20;;;18.60;99.90;;;;;;5053620;28;20447;-67
2021/07/28 05:35:11;;;;;;;13.70;12.30;;;18.60;99.90;;;;;;5053561;28;20440;-67
2021/07/28 05:37:38;;;;;;;14.30;12.23;;;18.60;99.90;;;;;;5053313;28;20555;-67
2021/07/28 05:40:06;;;;;;;13.10;11.80;;;18.70;99.90;;;;;;5053177;28;20474;-67
2021/07/28 05:42:34;;;;;;;13.00;11.63;;;18.80;99.90;;;;;;5053113;28;20515;-67
2021/07/28 05:45:02;;;;;;;14.30;11.57;;;18.80;99.90;;;;;;5053379;28;20435;-68
2021/07/28 05:47:29;;;;;;;12.70;10.97;;;18.90;99.90;;;;;;5052965;28;20471;-68
2021/07/28 05:49:58;;;;;;;11.80;10.60;;;18.90;99.90;;;;;;5052402;28;20505;-67
2021/07/28 05:52:25;;;;;;;11.00;9.90;;;18.80;99.90;;;;;;5052649;28;20490;-67
2021/07/28 05:54:51;;;;;;;13.10;10.77;;;18.80;99.90;;;;;;5053019;28;20878;-66
2021/07/28 05:57:18;;;;;;;12.53;11.17;;;19.00;99.90;;;;;;5053047;28;20539;-67
2021/07/28 05:59:46;;;;;;;12.23;10.30;;;19.10;99.90;;;;;;5052626;28;20454;-66
2021/07/28 06:02:13;;;;;;;11.90;10.70;;;19.20;99.90;;;;;;5052971;28;20448;-66
2021/07/28 06:04:40;;;;;;;11.40;10.30;;;19.30;99.90;;;;;;5052675;28;20543;-66
2021/07/28 06:07:07;;;;;;;13.13;10.67;;;19.30;99.90;;;;;;5052622;28;20440;-66
2021/07/28 06:09:34;;;;;;;13.90;12.40;;;19.40;99.90;;;;;;5052149;28;20448;-66
2021/07/28 06:12:01;;;;;;;12.30;10.13;;;19.50;99.90;;;;;;5052574;28;20864;-66
2021/07/28 06:14:28;;;;;;;12.50;10.10;;;19.60;99.90;;;;;;5052625;28;20452;-66
2021/07/28 06:16:56;;;;;;;11.17;10.07;;;19.70;99.90;;;;;;5052661;28;20447;-66
2021/07/28 06:19:23;;;;;;;11.87;9.73;;;19.70;99.90;;;;;;5052066;28;20486;-66
2021/07/28 06:21:50;;;;;;;13.17;10.40;;;19.80;99.90;;;;;;5052344;28;20527;-66
2021/07/28 06:24:17;;;;;;;12.60;10.33;;;19.80;99.90;;;;;;5052146;28;20908;-66
2021/07/28 06:26:44;;;;;;;11.60;10.50;;;19.70;99.90;;;;;;5051352;28;20456;-65
2021/07/28 06:29:10;;;;;;;11.50;10.40;;;19.70;99.90;;;;;;5052554;28;20486;-66
2021/07/28 06:31:37;;;;;;;12.00;10.80;;;19.70;99.90;;;;;;5056568;28;20490;-66
2021/07/28 06:34:05;;;;;;;10.10;8.93;;;19.60;99.90;;;;;;5050605;28;20452;-66
2021/07/28 06:36:32;;;;;;;9.60;8.50;;;19.70;99.90;;;;;;5055163;28;20530;-66
2021/07/28 06:38:59;;;;;;;12.30;9.63;;;19.60;99.90;;;;;;5047526;28;20475;-65
2021/07/28 06:41:26;;;;;;;11.83;10.63;;;19.50;99.90;;;;;;5046424;28;20984;-67
2021/07/28 06:43:53;;;;;;;12.30;11.00;;;19.50;99.90;;;;;;5061383;28;20527;-66
2021/07/28 06:46:20;;;;;;;12.57;10.87;;;19.50;99.90;;;;;;5066892;28;20448;-67
2021/07/28 06:48:47;;;;;;;11.77;10.07;;;19.40;99.90;;;;;;5057471;28;21027;-66
2021/07/28 06:51:15;;;;;;;14.10;12.00;;;19.40;99.90;;;;;;5040733;28;20485;-66
2021/07/28 06:53:42;;;;;;;11.77;10.67;;;19.30;99.90;;;;;;5038948;28;20898;-66
2021/07/28 06:56:11;;;;;;;12.07;10.80;;;19.20;99.90;;;;;;5043048;28;20452;-66
2021/07/28 06:58:38;;;;;;;12.47;11.20;;;19.10;99.90;;;;;;5050167;28;21025;-67
2021/07/28 07:01:07;;;;;;;11.97;10.77;;;18.90;99.90;;;;;;5039499;28;20453;-66
2021/07/28 07:03:34;;;;;;;13.03;11.73;;;18.80;99.90;;;;;;5045110;28;20457;-66
2021/07/28 07:06:01;;;;;;;12.87;10.93;;;18.80;99.90;;;;;;5041815;28;20455;-67
2021/07/28 07:08:29;;;;;;;12.47;10.60;;;18.80;99.90;;;;;;5042674;28;20998;-67
2021/07/28 07:10:56;;;;;;;12.43;11.23;;;18.90;99.90;;;;;;5046465;28;20456;-67
2021/07/28 07:13:23;;;;;;;14.50;11.70;;;18.90;99.90;;;;;;5044053;28;20810;-67
2021/07/28 07:15:50;;;;;;;19.40;13.60;;;18.90;99.90;;;;;;5041985;28;20454;-68
2021/07/28 07:18:17;;;;;;;12.93;11.63;;;19.00;99.90;;;;;;5055425;28;20467;-68
2021/07/28 07:20:44;;;;;;;17.43;13.20;;;19.10;99.90;;;;;;5060131;28;20482;-69
2021/07/28 07:23:12;;;;;;;12.40;10.70;;;19.20;99.90;;;;;;5055004;28;20523;-67
2021/07/28 07:25:40;;;;;;;11.40;10.30;;;19.20;99.90;;;;;;5051287;28;20452;-67
2021/07/28 07:28:07;;;;;;;11.70;10.00;;;19.30;99.90;;;;;;5049609;28;20477;-68
2021/07/28 07:30:35;;;;;;;11.87;10.27;;;19.40;99.90;;;;;;5051440;28;20452;-67
2021/07/28 07:35:46;;;;;;;9.90;8.20;;;19.10;99.90;;;;;;5042511;28;20443;-67
2021/07/28 07:38:13;;;;;;;11.07;8.20;;;19.10;99.90;;;;;;5040740;28;20467;-67
2021/07/28 07:40:42;;;;;;;10.80;9.70;;;19.10;99.90;;;;;;5052198;28;20445;-65
2021/07/28 07:43:11;;;;;;;10.20;9.13;;;19.10;99.90;;;;;;5045805;28;20460;-66
2021/07/28 07:45:37;;;;;;;9.57;8.57;;;19.30;99.90;;;;;;5047486;28;20463;-66
2021/07/28 07:48:05;;;;;;;10.83;8.30;;;19.40;99.90;;;;;;5040990;28;20901;-67
2021/07/28 07:50:35;;;;;;;9.30;8.07;;;19.60;99.90;;;;;;5039965;28;20457;-66
2021/07/28 07:53:03;;;;;;;11.00;8.33;;;19.80;99.90;;;;;;5043101;28;20994;-67
2021/07/28 07:55:29;;;;;;;8.73;7.87;;;19.80;99.90;;;;;;5060234;28;20440;-67
2021/07/28 07:57:58;;;;;;;8.60;7.40;;;19.80;99.90;;;;;;5058664;28;20476;-67
2021/07/28 08:00:25;;;;;;;10.43;7.20;;;19.90;99.90;;;;;;5058918;28;20939;-67
2021/07/28 08:02:55;;;;;;;10.50;8.60;;;19.80;99.90;;;;;;5049747;28;20436;-67
2021/07/28 08:05:22;;;;;;;11.33;8.50;;;19.70;99.90;;;;;;5050837;28;20630;-67
2021/07/28 08:07:49;;;;;;;10.73;7.37;;;19.60;99.90;;;;;;5049242;28;20471;-68
2021/07/28 08:10:16;;;;;;;8.40;7.33;;;19.60;99.90;;;;;;5062393;28;20989;-67
2021/07/28 08:12:43;;;;;;;9.13;7.03;;;19.50;99.90;;;;;;5052679;28;20497;-67
2021/07/28 08:15:11;;;;;;;10.07;7.10;;;19.50;99.90;;;;;;5061233;28;20447;-67
2021/07/28 08:17:38;;;;;;;8.47;7.57;;;19.40;99.90;;;;;;5049195;28;20557;-67
2021/07/28 08:20:06;;;;;;;8.70;7.80;;;19.50;99.90;;;;;;5038513;28;20997;-67
2021/07/28 08:22:33;;;;;;;7.90;7.10;;;19.50;99.90;;;;;;5041430;28;20527;-67
2021/07/28 08:25:00;;;;;;;7.97;7.17;;;19.60;99.90;;;;;;5052314;28;20770;-67
2021/07/28 08:27:27;;;;;;;9.50;7.93;;;19.50;99.90;;;;;;5049362;28;21016;-67
2021/07/28 08:29:54;;;;;;;9.07;6.87;;;19.50;99.90;;;;;;5057630;28;20444;-67
2021/07/28 08:32:23;;;;;;;9.33;7.57;;;19.40;99.90;;;;;;5060873;28;20873;-67
2021/07/28 08:34:49;;;;;;;8.27;7.17;;;19.20;99.90;;;;;;5053092;28;20546;-66
2021/07/28 08:37:18;;;;;;;9.93;8.00;;;19.30;99.90;;;;;;5051131;28;20451;-67
2021/07/28 08:39:45;;;;;;;8.47;7.17;;;19.50;99.90;;;;;;5053960;28;20437;-67
2021/07/28 08:42:13;;;;;;;7.53;6.83;;;19.70;99.90;;;;;;5067545;28;20450;-67
2021/07/28 08:44:41;;;;;;;8.87;7.10;;;19.80;99.90;;;;;;5055112;28;20937;-67
2021/07/28 08:47:09;;;;;;;11.03;7.20;;;20.10;99.90;;;;;;5057225;28;20454;-67
2021/07/28 08:49:37;;;;;;;9.03;6.70;;;20.30;99.90;;;;;;5052563;28;20450;-67
2021/07/28 08:52:04;;;;;;;10.13;6.70;;;20.40;99.90;;;;;;5057372;28;21001;-67
2021/07/28 08:54:32;;;;;;;8.30;7.30;;;20.40;99.90;;;;;;5048384;28;20941;-67
2021/07/28 08:57:00;;;;;;;8.03;7.23;;;20.60;99.90;;;;;;5048359;28;20548;-67
2021/07/28 08:59:29;;;;;;;8.80;7.27;;;20.90;99.90;;;;;;5046732;28;20474;-67
2021/07/28 09:01:57;;;;;;;10.07;7.47;;;21.20;99.90;;;;;;5048018;28;20527;-67
2021/07/28 09:04:25;;;;;;;8.20;6.37;;;21.40;99.90;;;;;;5048320;28;20456;-67
2021/07/28 09:06:55;;;;;;;8.70;6.30;;;21.70;99.90;;;;;;5058751;28;20439;-67
2021/07/28 09:09:22;;;;;;;7.13;6.40;;;21.70;99.90;;;;;;5050268;28;20966;-67
2021/07/28 09:11:53;;;;;;;8.30;6.83;;;21.90;99.90;;;;;;5041178;28;21055;-67
2021/07/28 09:14:22;;;;;;;7.67;6.37;;;21.90;99.90;;;;;;5048493;28;20525;-67
2021/07/28 09:16:50;;;;;;;9.00;6.90;;;21.80;99.90;;;;;;5059146;28;20443;-67
2021/07/28 09:19:39;;;;;;;7.97;6.93;;;22.00;99.90;;;;;;5057166;28;20468;-67
2021/07/28 09:22:09;;;;;;;9.47;6.77;;;22.30;99.90;;;;;;5056077;28;20443;-67
2021/07/28 09:24:35;;;;;;;9.60;7.03;;;22.60;99.90;;;;;;5059918;28;20526;-67
2021/07/28 09:27:03;;;;;;;8.40;6.80;;;23.00;99.90;;;;;;5045705;28;20460;-67
2021/07/28 09:29:30;;;;;;;8.00;7.10;;;23.30;99.90;;;;;;5051983;28;20823;-67
2021/07/28 09:32:02;;;;;;;7.07;6.00;;;23.60;99.90;;;;;;5057502;28;20483;-67
2021/07/28 09:34:35;;;;;;;7.77;5.73;;;23.80;99.90;;;;;;5055583;28;20539;-67
2021/07/28 09:37:05;;;;;;;7.03;5.83;;;23.70;99.90;;;;;;5052827;28;20539;-66
2021/07/28 09:39:35;;;;;;;9.60;6.40;;;23.70;99.90;;;;;;5059592;28;20439;-67
2021/07/28 09:42:10;;;;;;;6.37;5.40;;;23.70;99.90;;;;;;5053213;28;20976;-67
2021/07/28 09:44:37;;;;;;;6.50;5.40;;;23.50;99.90;;;;;;5055671;28;20440;-67
2021/07/28 09:47:12;;;;;;;6.90;5.37;;;23.30;99.90;;;;;;5053994;28;20902;-67
2021/07/28 09:49:40;;;;;;;7.87;6.57;;;23.10;99.90;;;;;;5055457;28;20439;-67
2021/07/28 09:52:21;;;;;;;7.20;5.70;;;23.00;99.90;;;;;;5054892;28;20486;-67
2021/07/28 09:54:51;;;;;;;6.90;5.70;;;23.20;99.90;;;;;;5054893;28;20539;-67
2021/07/28 09:57:22;;;;;;;6.60;5.47;;;23.20;99.90;;;;;;5043674;28;20980;-67
2021/07/28 09:59:54;;;;;;;5.73;4.93;;;23.60;99.90;;;;;;5046857;28;20458;-67
2021/07/28 10:02:23;;;;;;;5.37;4.87;;;23.90;99.90;;;;;;5043841;28;20486;-67
2021/07/28 10:04:51;;;;;;;6.00;5.40;;;24.20;99.90;;;;;;5048231;28;20523;-67
2021/07/28 10:07:20;;;;;;;5.70;5.07;;;24.60;99.90;;;;;;5049112;28;20809;-67
2021/07/28 10:10:05;;;;;;;5.10;4.60;;;25.20;99.90;;;;;;5049146;28;20448;-67
2021/07/28 10:12:34;;;;;;;6.37;5.60;;;25.40;99.90;;;;;;5050906;28;20570;-66
2021/07/28 10:15:02;;;;;;;5.67;4.90;;;25.80;99.90;;;;;;5049635;28;20449;-66
2021/07/28 10:17:30;;;;;;;5.80;4.77;;;25.90;99.90;;;;;;5032763;28;20473;-66
2021/07/28 10:19:57;;;;;;;6.70;6.10;;;26.00;99.90;;;;;;5032382;28;20461;-66
2021/07/28 10:22:25;;;;;;;6.20;5.10;;;25.70;99.90;;;;;;5032650;28;20540;-66
2021/07/28 10:24:52;;;;;;;5.47;4.97;;;25.60;99.90;;;;;;5036581;28;20447;-66
2021/07/28 10:27:21;;;;;;;7.13;4.93;;;25.60;99.90;;;;;;5064136;28;20449;-67
2021/07/28 10:29:50;;;;;;;7.20;5.50;;;25.20;99.90;;;;;;5058871;28;20444;-66
2021/07/28 10:32:30;;;;;;;6.40;5.70;;;25.10;99.90;;;;;;5060263;28;20478;-66
2021/07/28 10:35:23;;;;;;;7.37;5.20;;;25.10;99.90;;;;;;5054131;28;20864;-66
2021/07/28 10:37:50;;;;;;;7.10;5.10;;;25.20;99.90;;;;;;5052168;28;20574;-65
2021/07/28 10:40:34;;;;;;;6.20;4.90;;;25.10;99.90;;;;;;5052108;28;20510;-65
2021/07/28 10:43:05;;;;;;;6.23;5.13;;;24.70;99.90;;;;;;5050166;28;20579;-65
2021/07/28 10:45:58;;;;;;;6.03;4.80;;;24.40;99.90;;;;;;5059180;28;20468;-66
2021/07/28 10:48:52;;;;;;;6.23;4.90;;;24.30;99.90;;;;;;5031988;28;20997;-66
2021/07/28 10:51:51;;;;;;;5.07;4.57;;;24.00;99.90;;;;;;5048895;28;20451;-66
2021/07/28 10:54:18;;;;;;;6.83;5.20;;;23.70;99.90;;;;;;5053617;28;20476;-66
2021/07/28 10:57:08;;;;;;;6.00;5.40;;;23.80;99.90;;;;;;5060933;28;20452;-66
2021/07/28 10:59:42;;;;;;;6.00;4.67;;;24.10;99.90;;;;;;5052623;28;20459;-66
2021/07/28 11:02:09;;;;;;;6.67;4.60;;;24.50;99.90;;;;;;5051700;28;20959;-66
2021/07/28 11:04:36;;;;;;;6.90;4.40;;;24.70;99.90;;;;;;5064529;28;20435;-66
2021/07/28 11:07:03;;;;;;;5.80;5.00;;;25.10;99.90;;;;;;5058582;28;20450;-66
2021/07/28 11:09:30;;;;;;;5.53;4.37;;;25.50;99.90;;;;;;5039465;28;20467;-66
2021/07/28 11:11:57;;;;;;;6.17;5.50;;;25.80;99.90;;;;;;5054637;28;20510;-66
2021/07/28 11:14:26;;;;;;;6.33;4.90;;;25.90;99.90;;;;;;5062141;28;20487;-66
2021/07/28 11:16:55;;;;;;;6.90;4.60;;;25.70;99.90;;;;;;5062674;28;21009;-66
2021/07/28 11:19:22;;;;;;;6.07;4.63;;;25.60;99.90;;;;;;5069321;28;20578;-66
2021/07/28 11:21:50;;;;;;;5.37;4.87;;;25.40;99.90;;;;;;5068777;28;20842;-66
2021/07/28 11:24:18;;;;;;;7.17;5.20;;;25.30;99.90;;;;;;5069499;28;20432;-66
2021/07/28 11:26:46;;;;;;;5.20;4.70;;;25.90;99.90;;;;;;5069518;28;20450;-66
2021/07/28 11:29:17;;;;;;;7.93;4.73;;;26.60;99.90;;;;;;5068952;28;20745;-67
2021/07/28 11:31:46;;;;;;;5.20;4.33;;;27.40;99.90;;;;;;5069356;28;20450;-66
2021/07/28 11:34:20;;;;;;;7.07;5.10;;;27.60;99.90;;;;;;5069035;28;20486;-67
2021/07/28 11:36:55;;;;;;;6.30;5.50;;;28.40;99.90;;;;;;5059075;28;20444;-67
2021/07/28 11:39:22;;;;;;;5.87;5.30;;;28.70;99.90;;;;;;5028946;28;20468;-67
2021/07/28 11:41:50;;;;;;;5.60;5.00;;;28.70;99.90;;;;;;5030443;28;20999;-67
2021/07/28 11:44:19;;;;;;;5.40;4.60;;;28.80;99.90;;;;;;5030380;28;20447;-67
2021/07/28 11:46:53;;;;;;;5.10;4.60;;;29.40;99.90;;;;;;5030052;28;20508;-67
2021/07/28 11:49:25;;;;;;;6.00;4.40;;;29.30;99.90;;;;;;5030606;28;20460;-67
2021/07/28 11:51:52;;;;;;;5.10;4.43;;;29.20;99.90;;;;;;5030844;28;20451;-67
2021/07/28 11:54:19;;;;;;;7.43;4.33;;;29.10;99.90;;;;;;5056329;28;20483;-67
2021/07/28 11:56:48;;;;;;;6.37;4.67;;;29.60;99.90;;;;;;5056446;28;20927;-67
2021/07/28 11:59:19;;;;;;;6.80;5.00;;;29.70;99.10;;;;;;5050621;28;20558;-67
2021/07/28 12:01:53;;;;;;;5.23;4.60;;;30.00;99.00;;;;;;5050581;28;20467;-67
2021/07/28 12:04:26;;;;;;;6.70;5.53;;;30.00;98.40;;;;;;5050526;28;20527;-67
2021/07/28 12:06:54;;;;;;;5.60;5.00;;;28.20;97.70;;;;;;5054902;28;20454;-67
2021/07/28 12:09:22;;;;;;;5.70;4.70;;;27.30;99.90;;;;;;5058839;28;20460;-67
2021/07/28 12:11:54;;;;;;;5.13;4.53;;;26.70;99.90;;;;;;5051084;28;20538;-67
2021/07/28 12:14:30;;;;;;;6.00;4.60;;;26.30;99.90;;;;;;5052562;28;21019;-67
2021/07/28 12:16:59;;;;;;;5.07;4.50;;;26.30;99.90;;;;;;5055360;28;20498;-67
2021/07/28 12:19:30;;;;;;;5.27;4.20;;;27.00;99.90;;;;;;5062537;28;20516;-67
2021/07/28 12:22:02;;;;;;;6.27;4.50;;;27.60;99.90;;;;;;5030169;28;20946;-67
2021/07/28 12:24:36;;;;;;;6.03;4.77;;;28.60;99.90;;;;;;5030591;28;20471;-67
2021/07/28 12:27:36;;;;;;;5.40;4.57;;;29.80;97.70;;;;;;5059034;28;20461;-67
2021/07/28 12:30:09;;;;;;;4.63;4.13;;;30.60;97.30;;;;;;5041009;28;20847;-67
2021/07/28 12:32:37;;;;;;;5.27;4.47;;;31.50;95.00;;;;;;5028119;28;20451;-67
2021/07/28 12:35:26;;;;;;;5.37;4.60;;;31.50;94.70;;;;;;5027297;28;20484;-67
2021/07/28 12:38:05;;;;;;;4.70;4.20;;;30.90;94.80;;;;;;5051180;28;20464;-67
2021/07/28 12:40:31;;;;;;;5.93;4.43;;;29.90;94.40;;;;;;5057929;28;20449;-67
2021/07/28 12:42:58;;;;;;;5.60;4.93;;;29.30;98.10;;;;;;5058136;28;20711;-67
2021/07/28 12:45:25;;;;;;;5.90;4.73;;;28.80;99.80;;;;;;5050342;28;20444;-67
2021/07/28 12:47:52;;;;;;;5.50;4.67;;;28.20;98.80;;;;;;5057100;28;20479;-67